Time;durP1;ratioP1;P1;durP2;ratioP2;P2;SDS_P1;SDS_P2;PMS_P1;PMS_P2;Temp;Humidity;BMP_temperature;BMP_pressure;BME280_temperature;BME280_humidity;BME280_pressure;Samples;Min_cycle;Max_cycle;Signal;HPM_P1;HPM_P2
2021/01/30 00:00:43;;;;;;;30.42;24.70;;;;;;;3.00;86.03;99304.38;5074601;28;20376;-78
2021/01/30 00:03:47;;;;;;;27.90;21.90;;;;;;;3.02;84.67;99288.34;5074821;28;20055;-76
2021/01/30 00:06:51;;;;;;;;;;;;;;;3.05;83.79;99293.41;5074679;28;20407;-78
2021/01/30 00:09:55;;;;;;;27.33;18.02;;;;;;;3.10;82.98;99285.97;5074521;28;19916;-78
2021/01/30 00:13:00;;;;;;;20.77;16.42;;;;;;;3.11;82.36;99290.31;5073593;28;20475;-77
2021/01/30 00:16:05;;;;;;;24.33;15.23;;;;;;;3.20;80.96;99289.63;5074362;28;20064;-78
2021/01/30 00:19:09;;;;;;;19.25;14.20;;;;;;;3.27;80.14;99283.75;5074540;28;20051;-76
2021/01/30 00:22:18;;;;;;;19.58;14.55;;;;;;;3.36;79.62;99281.38;5074233;28;20052;-78
2021/01/30 00:25:26;;;;;;;18.30;13.63;;;;;;;3.38;79.25;99290.91;5074010;28;20396;-78
2021/01/30 00:28:30;;;;;;;17.20;13.30;;;;;;;3.41;78.80;99290.66;5073980;28;20052;-73
2021/01/30 00:31:35;;;;;;;17.42;12.52;;;;;;;3.48;78.10;99291.88;5074049;28;20052;-77
2021/01/30 00:34:39;;;;;;;14.65;10.23;;;;;;;3.59;77.33;99293.72;5073776;28;20055;-75
2021/01/30 00:37:43;;;;;;;14.55;9.77;;;;;;;3.64;76.82;99297.72;5073675;28;20051;-76
2021/01/30 00:40:47;;;;;;;19.63;13.80;;;;;;;3.73;75.51;99299.66;5086801;28;20063;-76
2021/01/30 00:43:52;;;;;;;17.83;12.82;;;;;;;3.72;75.61;99295.34;5079363;28;20047;-75
2021/01/30 00:46:57;;;;;;;18.30;14.65;;;;;;;3.67;75.69;99294.84;5073304;28;20054;-77
2021/01/30 00:50:03;;;;;;;18.00;14.90;;;;;;;3.63;75.91;99303.16;5084252;28;20055;-76
2021/01/30 00:53:08;;;;;;;20.38;14.80;;;;;;;3.49;76.33;99306.00;5075386;28;20043;-77
2021/01/30 00:56:21;;;;;;;22.17;15.73;;;;;;;3.36;76.70;99292.81;5086916;28;20482;-78
2021/01/30 00:59:25;;;;;;;20.33;15.45;;;;;;;3.40;76.96;99298.75;5093177;28;20043;-78
2021/01/30 01:02:30;;;;;;;20.45;15.43;;;;;;;3.38;77.12;99311.28;5080260;28;20060;-76
2021/01/30 01:05:34;;;;;;;18.95;14.55;;;;;;;3.35;77.50;99311.50;5061409;28;20051;-78
2021/01/30 01:08:37;;;;;;;19.55;15.57;;;;;;;3.24;77.59;99310.50;5073581;28;20051;-76
2021/01/30 01:11:45;;;;;;;20.23;14.07;;;;;;;3.24;77.96;99314.94;5072883;28;20494;-78
2021/01/30 01:14:49;;;;;;;19.63;12.80;;;;;;;3.29;77.93;99313.66;5077771;28;20407;-76
2021/01/30 01:17:54;;;;;;;16.70;12.93;;;;;;;3.24;77.74;99317.59;5093900;28;20056;-77
2021/01/30 01:20:58;;;;;;;17.27;13.07;;;;;;;3.24;78.01;99323.75;5072450;28;20050;-78
2021/01/30 01:24:03;;;;;;;15.77;10.88;;;;;;;3.23;78.14;99316.75;5073617;28;20387;-76
2021/01/30 01:27:07;;;;;;;16.50;11.55;;;;;;;3.27;77.81;99328.84;5073491;28;20051;-78
2021/01/30 01:30:13;;;;;;;16.60;10.77;;;;;;;3.26;77.58;99319.19;5073519;28;20056;-78
2021/01/30 01:33:17;;;;;;;13.95;9.68;;;;;;;3.32;77.21;99328.50;5089689;28;20051;-76
2021/01/30 01:36:21;;;;;;;9.98;6.40;;;;;;;3.37;76.52;99326.34;5073897;28;20047;-76
2021/01/30 01:39:27;;;;;;;10.07;7.00;;;;;;;3.51;75.69;99330.59;5091001;28;20063;-78
2021/01/30 01:42:31;;;;;;;12.18;6.68;;;;;;;3.60;75.14;99325.47;5077328;28;20498;-76
2021/01/30 01:45:35;;;;;;;;;;;;;;;3.77;73.90;99333.00;5074074;28;20055;-75
2021/01/30 01:48:46;;;;;;;9.73;4.17;;;;;;;3.95;72.91;99328.06;5073343;28;19920;-76
2021/01/30 01:52:00;;;;;;;6.70;3.63;;;;;;;4.09;72.04;99329.66;5072470;28;20047;-77
2021/01/30 01:55:11;;;;;;;5.40;3.50;;;;;;;4.19;71.57;99326.19;5079015;28;20106;-73
2021/01/30 01:58:18;;;;;;;6.60;3.35;;;;;;;4.23;71.29;99322.31;5078759;28;20070;-77
2021/01/30 02:01:22;;;;;;;5.35;2.70;;;;;;;4.25;70.65;99311.53;5082651;28;20056;-76
2021/01/30 02:04:26;;;;;;;4.82;2.53;;;;;;;4.30;70.33;99312.88;5073263;28;20044;-78
2021/01/30 02:07:31;;;;;;;4.43;2.03;;;;;;;4.37;69.92;99318.59;5073364;28;20071;-76
2021/01/30 02:10:41;;;;;;;6.05;2.50;;;;;;;4.43;69.40;99310.97;5073199;28;20384;-75
2021/01/30 02:13:50;;;;;;;3.53;2.10;;;;;;;4.50;69.12;99317.47;5075048;28;20043;-78
2021/01/30 02:17:21;;;;;;;6.18;2.05;;;;;;;4.57;68.68;99315.16;5091100;28;20059;-74
2021/01/30 02:20:58;;;;;;;5.30;2.78;;;;;;;4.63;68.25;99320.00;5108047;28;20510;-77
2021/01/30 02:24:30;;;;;;;3.78;1.85;;;;;;;4.67;67.75;99308.16;5096853;28;20375;-79
2021/01/30 02:28:13;;;;;;;3.22;1.88;;;;;;;4.65;67.93;99310.09;5096635;28;20050;-79
2021/01/30 02:31:49;;;;;;;4.10;1.88;;;;;;;4.62;67.62;99307.66;5096720;28;20097;-76
2021/01/30 02:35:43;;;;;;;3.45;1.92;;;;;;;4.59;67.70;99315.91;5095767;28;20043;-78
2021/01/30 02:39:09;;;;;;;3.20;1.63;;;;;;;4.53;68.02;99301.28;5047744;28;20067;-78
2021/01/30 02:42:32;;;;;;;3.38;1.33;;;;;;;4.50;67.85;99290.91;5077086;28;20048;-79
2021/01/30 02:45:45;;;;;;;2.47;1.38;;;;;;;4.48;67.88;99290.19;5083129;28;20055;-75
2021/01/30 02:48:54;;;;;;;2.95;1.48;;;;;;;4.48;67.74;99295.50;5076046;28;20062;-77
2021/01/30 02:52:22;;;;;;;2.47;1.45;;;;;;;4.51;67.49;99300.56;5076008;28;20051;-79
2021/01/30 02:55:28;;;;;;;3.35;1.25;;;;;;;4.54;67.12;99295.00;5088398;28;20044;-75
2021/01/30 02:58:49;;;;;;;2.67;1.30;;;;;;;4.66;66.53;99289.69;5094960;28;20047;-76
2021/01/30 03:01:54;;;;;;;2.92;1.30;;;;;;;4.69;66.09;99284.13;5079883;28;20047;-75
2021/01/30 03:05:01;;;;;;;3.35;1.65;;;;;;;4.83;65.35;99283.84;5076119;28;20047;-76
2021/01/30 03:08:25;;;;;;;4.03;1.30;;;;;;;4.85;65.02;99281.91;5075724;28;20072;-74
2021/01/30 03:11:43;;;;;;;2.80;1.42;;;;;;;4.86;64.90;99278.28;5074842;28;20497;-75
2021/01/30 03:14:54;;;;;;;4.63;1.40;;;;;;;4.88;64.83;99273.66;5075545;28;20051;-73
2021/01/30 03:18:01;;;;;;;2.72;1.58;;;;;;;4.93;64.42;99277.66;5089315;28;20047;-77
2021/01/30 03:21:10;;;;;;;2.53;1.38;;;;;;;4.97;64.07;99264.94;5074144;28;20056;-78
2021/01/30 03:24:14;;;;;;;2.00;1.10;;;;;;;5.05;63.53;99271.31;5075360;28;20052;-78
2021/01/30 03:27:26;;;;;;;2.15;1.17;;;;;;;5.12;63.27;99264.53;5106831;28;20051;-78
2021/01/30 03:30:30;;;;;;;3.30;1.58;;;;;;;5.16;63.14;99251.81;5082598;28;20047;-77
2021/01/30 03:33:34;;;;;;;2.55;1.27;;;;;;;5.18;63.04;99265.84;5075204;28;20043;-77
2021/01/30 03:36:39;;;;;;;2.42;1.08;;;;;;;5.18;62.73;99269.31;5076877;28;20067;-76
2021/01/30 03:39:43;;;;;;;2.80;1.17;;;;;;;5.23;62.14;99260.97;5075016;28;20043;-79
2021/01/30 03:42:48;;;;;;;2.45;1.30;;;;;;;5.31;61.83;99261.16;5074900;28;20043;-77
2021/01/30 03:45:52;;;;;;;2.22;1.27;;;;;;;5.30;61.69;99259.50;5081128;28;20494;-75
2021/01/30 03:48:57;;;;;;;3.33;1.05;;;;;;;5.38;61.34;99259.69;5074827;28;20055;-77
2021/01/30 03:52:01;;;;;;;3.20;0.90;;;;;;;5.44;60.95;99264.50;5073792;28;20047;-76
2021/01/30 03:55:07;;;;;;;2.97;1.30;;;;;;;5.48;61.07;99260.59;5074716;28;20048;-78
2021/01/30 03:58:11;;;;;;;4.82;1.10;;;;;;;5.45;61.15;99268.84;5085124;28;20055;-74
2021/01/30 04:01:16;;;;;;;3.53;0.90;;;;;;;5.47;60.98;99271.38;5094925;28;20043;-78
2021/01/30 04:04:20;;;;;;;3.63;1.27;;;;;;;5.52;60.65;99263.84;5094827;28;20063;-74
2021/01/30 04:07:23;;;;;;;;;;;;;;;5.52;60.54;99264.69;5095502;28;20042;-77
2021/01/30 04:10:33;;;;;;;2.63;1.10;;;;;;;5.47;60.63;99269.56;5090344;28;19923;-78
2021/01/30 04:13:37;;;;;;;2.55;1.20;;;;;;;5.46;60.70;99273.19;5090854;28;20051;-78
2021/01/30 04:16:41;;;;;;;3.15;1.10;;;;;;;5.48;60.63;99268.56;5074608;28;20051;-78
2021/01/30 04:19:46;;;;;;;2.00;0.88;;;;;;;5.47;60.67;99269.56;5074397;28;20050;-77
2021/01/30 04:22:50;;;;;;;1.85;0.98;;;;;;;5.44;60.87;99267.16;5073444;28;20506;-76
2021/01/30 04:25:55;;;;;;;1.90;0.90;;;;;;;5.37;60.89;99268.66;5082869;28;20051;-78
2021/01/30 04:28:59;;;;;;;2.17;1.10;;;;;;;5.41;61.18;99262.09;5076413;28;20059;-79
2021/01/30 04:32:04;;;;;;;3.33;1.10;;;;;;;5.40;61.25;99251.56;5094396;28;20047;-72
2021/01/30 04:35:10;;;;;;;2.88;1.52;;;;;;;5.38;60.85;99251.72;5094224;28;20049;-74
2021/01/30 04:38:15;;;;;;;5.25;1.17;;;;;;;5.39;60.83;99256.06;5082742;28;20051;-79
2021/01/30 04:41:45;;;;;;;4.25;1.55;;;;;;;5.31;61.49;99258.50;5082723;28;20058;-78
2021/01/30 04:45:04;;;;;;;2.63;1.40;;;;;;;5.24;61.88;99262.66;5080826;28;20044;-75
2021/01/30 04:48:38;;;;;;;2.92;1.40;;;;;;;5.15;61.81;99271.41;5073898;28;20051;-76
2021/01/30 04:52:04;;;;;;;3.25;1.20;;;;;;;5.15;61.79;99252.78;5073993;28;20043;-74
2021/01/30 04:55:33;;;;;;;2.58;1.17;;;;;;;5.17;61.92;99257.00;5073005;28;20044;-74
2021/01/30 04:58:51;;;;;;;2.85;1.10;;;;;;;5.27;61.28;99259.75;5084672;28;20056;-77
2021/01/30 05:02:03;;;;;;;3.53;1.10;;;;;;;5.36;60.96;99245.66;5076463;28;20051;-78
2021/01/30 05:05:11;;;;;;;2.25;1.20;;;;;;;5.44;60.70;99245.00;5078573;28;20055;-77
2021/01/30 05:08:27;;;;;;;2.30;1.20;;;;;;;5.49;60.50;99241.00;5093116;28;20399;-76
2021/01/30 05:11:33;;;;;;;2.03;0.85;;;;;;;5.44;60.57;99243.19;5093929;28;20498;-76
2021/01/30 05:14:51;;;;;;;2.58;1.13;;;;;;;5.42;60.70;99236.31;5080547;28;20043;-79
2021/01/30 05:18:34;;;;;;;2.25;1.00;;;;;;;5.42;60.45;99229.19;5079373;28;20399;-76
2021/01/30 05:21:50;;;;;;;3.92;1.00;;;;;;;5.49;60.19;99230.34;5073102;28;20047;-77
2021/01/30 05:24:55;;;;;;;2.08;0.90;;;;;;;5.51;60.18;99227.53;5073213;28;20047;-77
2021/01/30 05:28:09;;;;;;;2.05;0.98;;;;;;;5.50;60.00;99232.06;5096540;28;20067;-77
2021/01/30 05:31:19;;;;;;;3.15;0.82;;;;;;;5.57;59.98;99235.03;5092963;28;20075;-78
2021/01/30 05:34:33;;;;;;;2.28;0.90;;;;;;;5.58;59.76;99218.09;5092959;28;20055;-76
2021/01/30 05:37:47;;;;;;;2.60;0.80;;;;;;;5.56;60.05;99236.84;5091356;28;20055;-75
2021/01/30 05:41:00;;;;;;;3.80;0.80;;;;;;;5.54;60.24;99229.97;5072564;28;20051;-77
2021/01/30 05:44:20;;;;;;;2.15;0.70;;;;;;;5.48;60.46;99231.31;5073607;28;20051;-78
2021/01/30 05:47:31;;;;;;;2.10;0.80;;;;;;;5.42;60.38;99231.84;5074841;28;20044;-79
2021/01/30 05:50:38;;;;;;;2.40;0.82;;;;;;;5.35;60.92;99233.34;5077461;28;20051;-79
2021/01/30 05:53:44;;;;;;;85.57;54.05;;;;;;;5.31;60.96;99234.56;5077095;28;20479;-72
2021/01/30 05:56:48;;;;;;;20.48;12.98;;;;;;;5.31;60.52;99237.22;5082473;28;20051;-77
2021/01/30 05:59:58;;;;;;;4.00;2.03;;;;;;;5.37;60.35;99227.88;5097520;28;20051;-78
2021/01/30 06:03:05;;;;;;;2.33;1.10;;;;;;;5.31;60.59;99226.56;5105558;28;20044;-76
2021/01/30 06:06:10;;;;;;;2.25;0.85;;;;;;;5.25;60.85;99227.09;5084805;28;20063;-77
2021/01/30 06:09:41;;;;;;;3.25;1.20;;;;;;;5.14;61.54;99235.97;5077172;28;20051;-76
2021/01/30 06:12:45;;;;;;;2.67;1.13;;;;;;;5.06;61.77;99237.59;5097018;28;20051;-74
2021/01/30 06:15:54;;;;;;;1.75;0.90;;;;;;;5.12;61.16;99231.75;5095870;28;20051;-77
2021/01/30 06:19:16;;;;;;;2.25;1.00;;;;;;;5.22;60.89;99256.63;5096974;28;20379;-78
2021/01/30 06:22:22;;;;;;;2.38;0.90;;;;;;;5.16;60.87;99249.16;5108029;28;20058;-76
2021/01/30 06:25:31;;;;;;;3.33;1.20;;;;;;;5.20;60.69;99246.13;5095938;28;20043;-75
2021/01/30 06:28:39;;;;;;;3.50;1.17;;;;;;;5.23;60.58;99232.53;5082963;28;20530;-77
2021/01/30 06:31:43;;;;;;;2.60;0.98;;;;;;;5.23;61.00;99221.91;5076320;28;20052;-78
2021/01/30 06:34:53;;;;;;;2.40;1.30;;;;;;;5.15;61.64;99227.03;5076673;28;20063;-77
2021/01/30 06:38:00;;;;;;;4.72;1.70;;;;;;;5.05;63.39;99247.38;5076422;28;20051;-74
2021/01/30 06:41:05;;;;;;;4.80;2.67;;;;;;;4.93;63.87;99247.56;5081696;28;20051;-77
2021/01/30 06:44:27;;;;;;;10.85;4.35;;;;;;;4.76;65.32;99238.31;5093173;28;20050;-80
2021/01/30 06:47:31;;;;;;;7.05;4.22;;;;;;;4.72;66.02;99231.53;5107581;28;20051;-76
2021/01/30 06:50:39;;;;;;;7.13;3.75;;;;;;;4.71;66.27;99248.47;5096064;28;20043;-72
2021/01/30 06:53:43;;;;;;;7.10;4.00;;;;;;;4.66;66.74;99249.81;5096515;28;20051;-75
2021/01/30 06:57:03;;;;;;;7.40;3.88;;;;;;;4.55;67.32;99255.97;5076377;28;20055;-74
2021/01/30 07:00:25;;;;;;;10.10;5.55;;;;;;;4.43;67.97;99256.97;5079586;28;20368;-73
2021/01/30 07:03:50;;;;;;;7.18;4.68;;;;;;;4.53;68.34;99268.56;5079472;28;20051;-76
2021/01/30 07:07:13;;;;;;;12.48;5.70;;;;;;;4.60;68.46;99267.09;5095753;28;20047;-72
2021/01/30 07:10:42;;;;;;;10.30;6.10;;;;;;;4.55;68.96;99283.41;5095865;28;20071;-73
2021/01/30 07:14:11;;;;;;;6.82;5.05;;;;;;;4.72;69.10;99286.50;5095069;28;20047;-73
2021/01/30 07:17:23;;;;;;;9.60;5.22;;;;;;;4.76;68.48;99288.81;5086828;28;20044;-76
2021/01/30 07:21:12;;;;;;;8.15;5.65;;;;;;;4.92;67.97;99301.69;5084339;28;20399;-75
2021/01/30 07:24:29;;;;;;;13.18;6.88;;;;;;;4.98;68.52;99310.03;5075211;28;20396;-77
2021/01/30 07:27:49;;;;;;;9.38;5.40;;;;;;;5.04;67.62;99332.59;5075305;28;20114;-73
2021/01/30 07:31:07;;;;;;;11.88;6.00;;;;;;;5.05;67.46;99324.50;5094413;28;20055;-76
2021/01/30 07:34:49;;;;;;;9.18;5.70;;;;;;;5.28;66.86;99314.66;5095511;28;20051;-73
2021/01/30 07:38:01;;;;;;;9.85;6.82;;;;;;;5.61;66.17;99309.16;5085947;28;20498;-75
2021/01/30 07:41:16;;;;;;;11.48;8.55;;;;;;;6.03;64.96;99298.53;5094760;28;20051;-77
2021/01/30 07:44:23;;;;;;;13.85;8.98;;;;;;;6.53;63.33;99292.31;5075021;28;20043;-77
2021/01/30 07:47:59;;;;;;;15.20;10.25;;;;;;;7.20;61.70;99293.31;5083692;28;20051;-76
2021/01/30 07:51:11;;;;;;;18.55;11.52;;;;;;;7.93;59.31;99286.50;5095120;28;20498;-74
2021/01/30 07:54:15;;;;;;;20.75;12.07;;;;;;;8.47;58.08;99285.78;5095072;28;20047;-74
2021/01/30 07:57:38;;;;;;;19.77;12.00;;;;;;;8.48;57.49;99277.63;5093403;28;20498;-74
2021/01/30 08:00:48;;;;;;;19.23;15.13;;;;;;;9.26;56.28;99273.47;5094188;28;20047;-73
2021/01/30 08:03:58;;;;;;;19.95;15.02;;;;;;;10.19;53.41;99283.63;5095207;28;20059;-78
2021/01/30 08:07:22;;;;;;;23.85;16.48;;;;;;;10.43;52.23;99267.66;5094807;28;20055;-78
2021/01/30 08:10:53;;;;;;;20.10;11.95;;;;;;;11.91;48.08;99280.25;5091838;28;20048;-75
2021/01/30 08:14:39;;;;;;;11.73;8.95;;;;;;;11.71;46.38;99269.88;5082141;28;20051;-73
2021/01/30 08:18:02;;;;;;;10.35;7.55;;;;;;;9.47;51.39;99259.78;5079073;28;20054;-73
2021/01/30 08:21:25;;;;;;;10.30;7.07;;;;;;;9.04;53.19;99257.84;5094875;28;20051;-77
2021/01/30 08:24:45;;;;;;;13.13;8.13;;;;;;;8.69;54.43;99257.81;5074082;28;20059;-78
2021/01/30 08:28:00;;;;;;;12.45;9.02;;;;;;;8.33;55.66;99263.06;5074431;28;20052;-78
2021/01/30 08:31:04;;;;;;;15.95;10.13;;;;;;;7.97;57.33;99244.31;5083001;28;20390;-74
2021/01/30 08:34:20;;;;;;;13.38;9.57;;;;;;;8.02;57.88;99234.03;5095140;28;20477;-75
2021/01/30 08:37:24;;;;;;;21.35;10.50;;;;;;;8.11;58.02;99228.63;5090076;28;20051;-77
2021/01/30 08:41:09;;;;;;;26.15;18.38;;;;;;;8.12;59.00;99227.63;5093030;28;20148;-73
2021/01/30 08:44:38;;;;;;;110.93;79.07;;;;;;;8.54;58.76;99248.59;5075328;28;20059;-75
2021/01/30 08:47:54;;;;;;;50.25;32.55;;;;;;;9.44;56.88;99242.19;5113141;27;20051;-71
2021/01/30 08:50:59;;;;;;;30.88;19.50;;;;;;;10.55;53.01;99234.19;5092543;28;20055;-72
2021/01/30 08:54:39;;;;;;;30.45;23.08;;;;;;;12.37;47.70;99239.13;5092578;28;20039;-74
2021/01/30 08:57:44;;;;;;;30.55;22.23;;;;;;;14.86;42.30;99236.28;5073255;28;20052;-79
2021/01/30 09:00:52;;;;;;;25.73;19.90;;;;;;;16.44;37.98;99243.22;5084098;28;20255;-74
2021/01/30 09:04:02;;;;;;;19.23;14.10;;;;;;;17.62;35.62;99238.28;5083178;28;20043;-74
2021/01/30 09:07:06;;;;;;;23.15;14.43;;;;;;;18.17;34.76;99243.34;5073056;28;20043;-74
2021/01/30 09:10:23;;;;;;;17.73;11.85;;;;;;;19.23;32.34;99248.25;5074575;28;20051;-70
2021/01/30 09:14:01;;;;;;;24.98;11.60;;;;;;;19.87;31.22;99239.94;5087938;28;20059;-79
2021/01/30 09:17:34;;;;;;;17.48;12.35;;;;;;;20.61;30.24;99233.63;5086900;28;20072;-73
2021/01/30 09:20:53;;;;;;;17.95;12.50;;;;;;;21.74;28.66;99237.41;5087244;28;20083;-71
2021/01/30 09:24:22;;;;;;;17.80;12.23;;;;;;;21.78;27.87;99222.19;5092539;28;20047;-78
2021/01/30 09:27:29;;;;;;;16.55;12.63;;;;;;;22.07;28.00;99221.34;5096292;28;20047;-71
2021/01/30 09:30:51;;;;;;;14.27;12.65;;;;;;;22.19;27.37;99216.72;5096551;28;20047;-71
2021/01/30 09:34:14;;;;;;;15.43;11.88;;;;;;;21.73;27.98;99213.84;5096536;28;20058;-71
2021/01/30 09:37:54;;;;;;;14.75;11.70;;;;;;;22.17;27.26;99196.97;5096774;28;20430;-71
2021/01/30 09:41:20;;;;;;;14.32;12.32;;;;;;;21.71;27.65;99180.50;5054827;28;20152;-76
2021/01/30 09:44:25;;;;;;;11.40;10.20;;;;;;;20.58;29.19;99187.69;5054158;28;20040;-77
2021/01/30 09:47:30;;;;;;;12.35;10.27;;;;;;;19.22;31.74;99191.34;5043304;28;20531;-78
2021/01/30 09:50:38;;;;;;;20.55;10.70;;;;;;;17.98;33.44;99192.56;5054766;28;20119;-73
2021/01/30 09:53:56;;;;;;;13.80;10.65;;;;;;;16.57;35.77;99208.06;5055088;28;20056;-71
2021/01/30 09:57:13;;;;;;;15.77;10.02;;;;;;;16.10;36.92;99206.94;5054487;28;20542;-73
2021/01/30 10:00:33;;;;;;;15.63;12.02;;;;;;;15.50;38.23;99195.84;5054455;28;20060;-73
2021/01/30 10:03:41;;;;;;;18.67;12.70;;;;;;;15.17;38.90;99209.00;5042870;28;20044;-71
2021/01/30 10:06:46;;;;;;;11.88;9.43;;;;;;;14.88;39.45;99203.69;5051556;28;20044;-71
2021/01/30 10:09:51;;;;;;;16.73;10.07;;;;;;;14.74;39.86;99209.97;5052379;28;20052;-79
2021/01/30 10:12:57;;;;;;;13.98;8.95;;;;;;;14.50;39.84;99208.41;5052853;28;20060;-71
2021/01/30 10:16:03;;;;;;;17.58;11.07;;;;;;;14.17;40.73;99215.19;5095520;28;20047;-71
2021/01/30 10:19:25;;;;;;;17.30;11.30;;;;;;;13.87;41.79;99208.06;5095644;28;20055;-72
2021/01/30 10:22:42;;;;;;;13.15;10.02;;;;;;;13.89;42.40;99216.81;5095406;28;20055;-70
2021/01/30 10:25:46;;;;;;;12.90;9.80;;;;;;;13.61;42.58;99206.63;5096445;28;20043;-70
2021/01/30 10:28:54;;;;;;;9.85;8.73;;;;;;;13.33;43.10;99202.78;5095131;28;20047;-70
2021/01/30 10:32:06;;;;;;;12.00;9.23;;;;;;;12.77;44.14;99192.38;5096321;28;20387;-71
2021/01/30 10:35:16;;;;;;;8.55;7.20;;;;;;;12.28;44.92;99195.28;5095219;28;20490;-71
2021/01/30 10:38:24;;;;;;;10.50;7.18;;;;;;;12.04;46.43;99187.31;5095042;28;20047;-71
2021/01/30 10:41:30;;;;;;;14.27;7.45;;;;;;;11.89;46.29;99186.34;5095062;28;20058;-75
2021/01/30 10:44:36;;;;;;;9.02;6.70;;;;;;;11.81;46.45;99178.28;5088407;28;20051;-81
2021/01/30 10:47:41;;;;;;;11.05;5.97;;;;;;;11.65;45.47;99162.16;5093770;28;20047;-71
2021/01/30 10:50:47;;;;;;;13.77;5.82;;;;;;;11.51;45.69;99160.97;5095870;28;20047;-71
2021/01/30 10:54:27;;;;;;;35.13;19.20;;;;;;;11.38;46.03;99160.66;5094282;28;20513;-71
2021/01/30 10:57:31;;;;;;;11.93;6.20;;;;;;;11.37;47.24;99152.78;5080845;28;20390;-71
2021/01/30 11:00:35;;;;;;;8.52;6.43;;;;;;;11.16;47.46;99137.16;5095612;28;20047;-71
2021/01/30 11:03:57;;;;;;;9.80;5.75;;;;;;;11.19;48.21;99141.34;5093278;28;20395;-74
2021/01/30 11:07:01;;;;;;;10.32;6.45;;;;;;;11.21;48.96;99125.94;5095232;28;20391;-72
2021/01/30 11:10:07;;;;;;;10.77;6.32;;;;;;;11.20;48.40;99114.34;5095222;28;20368;-71
2021/01/30 11:13:19;;;;;;;7.72;6.13;;;;;;;11.16;48.92;99109.47;5094708;28;20040;-70
2021/01/30 11:16:40;;;;;;;10.10;6.88;;;;;;;11.32;49.82;99112.97;5091953;28;20395;-71
2021/01/30 11:19:44;;;;;;;10.45;7.13;;;;;;;11.22;50.27;99109.63;5095588;28;20051;-70
2021/01/30 11:22:50;;;;;;;11.55;8.30;;;;;;;11.23;50.11;99099.75;5095532;28;20051;-70
2021/01/30 11:25:54;;;;;;;12.60;8.52;;;;;;;11.24;50.34;99093.34;5095435;28;20055;-71
2021/01/30 11:29:00;;;;;;;11.48;7.68;;;;;;;11.44;49.55;99108.09;5095188;28;20485;-70
2021/01/30 11:32:07;;;;;;;11.55;8.05;;;;;;;11.46;50.20;99101.53;5094490;28;20047;-71
2021/01/30 11:35:17;;;;;;;15.93;8.15;;;;;;;11.29;51.16;99102.56;5094682;28;20047;-70
2021/01/30 11:38:27;;;;;;;11.05;7.32;;;;;;;11.44;50.14;99094.66;5092025;28;20070;-71
2021/01/30 11:41:31;;;;;;;11.63;6.88;;;;;;;11.48;50.56;99094.13;5094190;28;20055;-71
2021/01/30 11:44:39;;;;;;;12.02;7.75;;;;;;;11.41;50.28;99085.09;5094031;28;20051;-71
2021/01/30 11:47:43;;;;;;;13.85;8.75;;;;;;;11.24;50.44;99094.19;5094857;28;20059;-71
2021/01/30 11:50:49;;;;;;;12.48;7.65;;;;;;;11.10;50.81;99101.09;5094721;28;20047;-71
2021/01/30 11:53:54;;;;;;;13.80;7.05;;;;;;;11.10;50.84;99092.19;5093861;28;20055;-71
2021/01/30 11:56:58;;;;;;;11.32;7.55;;;;;;;11.22;51.04;99095.34;5094386;28;20042;-71
2021/01/30 12:00:05;;;;;;;9.98;6.97;;;;;;;11.25;50.14;99105.78;5078371;28;20055;-71
2021/01/30 12:03:29;;;;;;;11.85;6.13;;;;;;;11.22;49.46;99098.03;5083430;28;20059;-71
2021/01/30 12:06:34;;;;;;;15.63;6.97;;;;;;;11.20;49.69;99097.38;5082228;28;20051;-71
2021/01/30 12:09:40;;;;;;;11.75;7.10;;;;;;;11.26;50.27;99084.09;5074254;28;20051;-71
2021/01/30 12:12:48;;;;;;;15.55;7.45;;;;;;;11.24;49.67;99088.81;5084929;28;20407;-71
2021/01/30 12:15:52;;;;;;;23.92;15.43;;;;;;;11.13;50.18;99085.66;5094705;28;20051;-70
2021/01/30 12:18:56;;;;;;;13.90;10.73;;;;;;;11.10;50.18;99074.25;5094570;28;20055;-71
2021/01/30 12:22:01;;;;;;;13.25;9.48;;;;;;;11.11;50.35;99083.94;5079754;28;20056;-70
2021/01/30 12:25:07;;;;;;;11.07;8.23;;;;;;;11.08;50.44;99105.75;5087333;28;20588;-71
2021/01/30 12:28:35;;;;;;;13.98;8.77;;;;;;;10.94;51.80;99087.66;5092496;28;20501;-71
2021/01/30 12:31:39;;;;;;;10.23;7.93;;;;;;;10.95;51.12;99091.19;5091777;28;20051;-71
2021/01/30 12:34:46;;;;;;;10.70;8.70;;;;;;;10.98;50.86;99072.91;5092149;28;20047;-77
2021/01/30 12:37:51;;;;;;;12.30;8.35;;;;;;;11.04;51.05;99077.59;5047066;28;20052;-80
2021/01/30 12:40:56;;;;;;;9.50;7.15;;;;;;;11.01;50.29;99069.84;5053057;28;20052;-73
2021/01/30 12:44:00;;;;;;;13.85;7.40;;;;;;;10.98;49.85;99058.63;5047274;28;20523;-71
2021/01/30 12:47:05;;;;;;;12.88;7.63;;;;;;;10.96;50.62;99050.72;5074079;28;20056;-71
2021/01/30 12:50:16;;;;;;;9.32;6.50;;;;;;;11.00;50.41;99037.81;5060334;28;20056;-71
2021/01/30 12:53:20;;;;;;;12.27;7.43;;;;;;;10.96;49.90;99015.00;5050931;28;20056;-73
2021/01/30 12:56:24;;;;;;;10.48;6.50;;;;;;;10.91;50.29;99018.19;5052732;28;20140;-71
2021/01/30 12:59:29;;;;;;;9.32;6.63;;;;;;;10.91;50.25;99004.75;5051920;28;20084;-73
2021/01/30 13:02:34;;;;;;;11.68;6.93;;;;;;;10.98;50.60;99013.84;5045287;28;20056;-74
2021/01/30 13:05:38;;;;;;;13.65;7.10;;;;;;;10.95;50.02;99021.38;5054522;28;20048;-73
2021/01/30 13:08:43;;;;;;;10.75;7.93;;;;;;;11.02;50.08;99014.31;5061332;28;20052;-73
2021/01/30 13:11:49;;;;;;;11.68;7.10;;;;;;;10.99;49.49;99004.75;5036775;28;20049;-76
2021/01/30 13:14:54;;;;;;;14.95;6.38;;;;;;;10.92;50.02;99011.81;5054555;28;20052;-74
2021/01/30 13:17:59;;;;;;;12.10;6.13;;;;;;;10.89;50.58;99004.09;5055068;28;20052;-78
2021/01/30 13:21:07;;;;;;;7.32;5.40;;;;;;;10.91;49.27;98985.97;5055235;28;20384;-77
2021/01/30 13:24:20;;;;;;;9.57;6.63;;;;;;;10.85;49.72;98959.81;5052790;28;20052;-76
2021/01/30 13:27:25;;;;;;;11.80;8.48;;;;;;;10.79;51.75;98951.63;5075936;28;20514;-72
2021/01/30 13:30:30;;;;;;;14.30;8.30;;;;;;;10.73;53.42;98947.75;5053739;28;20400;-74
2021/01/30 13:33:34;;;;;;;14.30;10.60;;;;;;;10.70;53.50;98945.41;5053415;28;20044;-72
2021/01/30 13:36:53;;;;;;;16.30;7.90;;;;;;;10.64;54.12;98940.72;5065644;28;20067;-72
2021/01/30 13:39:58;;;;;;;15.57;8.20;;;;;;;10.66;55.09;98946.78;5082607;28;20048;-74
2021/01/30 13:43:03;;;;;;;20.42;12.10;;;;;;;10.65;56.04;98953.13;5067391;28;20059;-74
2021/01/30 13:46:08;;;;;;;17.88;9.57;;;;;;;10.63;56.48;98940.91;5085655;28;20059;-72
2021/01/30 13:49:13;;;;;;;18.13;9.40;;;;;;;10.60;57.09;98935.84;5088827;28;20055;-74
2021/01/30 13:52:17;;;;;;;21.13;9.43;;;;;;;10.55;57.46;98936.38;5089563;28;20051;-73
2021/01/30 13:55:22;;;;;;;19.33;10.70;;;;;;;10.47;56.93;98924.81;5089132;28;20565;-73
2021/01/30 13:58:27;;;;;;;16.92;10.07;;;;;;;10.53;57.40;98911.56;5090191;28;20051;-72
2021/01/30 14:01:31;;;;;;;15.73;10.35;;;;;;;10.63;57.29;98917.59;5089711;28;20051;-72
2021/01/30 14:04:35;;;;;;;23.23;11.63;;;;;;;10.54;57.56;98905.19;5090281;28;20051;-70
2021/01/30 14:07:40;;;;;;;21.58;11.32;;;;;;;10.43;58.72;98903.69;5093542;28;20051;-70
2021/01/30 14:10:44;;;;;;;14.95;11.15;;;;;;;10.33;59.66;98905.72;5096542;28;20051;-70
2021/01/30 14:13:49;;;;;;;15.80;10.43;;;;;;;10.32;61.13;98904.03;5096888;28;20059;-70
2021/01/30 14:16:53;;;;;;;20.00;14.95;;;;;;;10.23;62.87;98914.91;5097193;28;20055;-71
2021/01/30 14:20:04;;;;;;;22.50;14.80;;;;;;;10.19;63.61;98900.19;5096062;28;20059;-70
2021/01/30 14:23:09;;;;;;;19.95;15.63;;;;;;;10.17;64.78;98894.97;5096084;28;20051;-70
2021/01/30 14:26:14;;;;;;;24.50;15.13;;;;;;;10.11;64.72;98890.25;5096813;28;20052;-70
2021/01/30 14:29:19;;;;;;;38.17;27.77;;;;;;;9.97;65.09;98877.53;5096609;28;20067;-70
2021/01/30 14:32:23;;;;;;;35.72;26.38;;;;;;;9.91;66.96;98866.63;5096604;28;20047;-70
2021/01/30 14:35:28;;;;;;;21.08;17.67;;;;;;;9.94;67.60;98864.47;5096204;28;20039;-72
2021/01/30 14:38:32;;;;;;;23.92;18.88;;;;;;;9.97;66.71;98863.28;5095713;28;20055;-71
2021/01/30 14:41:37;;;;;;;23.85;17.88;;;;;;;9.82;66.50;98844.34;5088615;28;20039;-70
2021/01/30 14:44:48;;;;;;;30.27;19.25;;;;;;;9.84;66.94;98839.66;5075732;28;20056;-71
2021/01/30 14:47:53;;;;;;;27.17;20.33;;;;;;;9.81;67.62;98831.94;5074907;28;20051;-70
2021/01/30 14:50:57;;;;;;;31.85;19.75;;;;;;;9.87;68.13;98833.13;5075592;28;20051;-71
2021/01/30 14:54:02;;;;;;;27.25;20.50;;;;;;;10.00;67.28;98820.06;5075931;28;20384;-71
2021/01/30 14:57:07;;;;;;;26.08;19.63;;;;;;;10.09;66.48;98827.09;5075488;28;20067;-72